Time;durP1;ratioP1;P1;durP2;ratioP2;P2;SDS_P1;SDS_P2;PMS_P1;PMS_P2;Temp;Humidity;BMP_temperature;BMP_pressure;BME280_temperature;BME280_humidity;BME280_pressure;Samples;Min_cycle;Max_cycle;Signal;HPM_P1;HPM_P2
2023/10/12 00:02:00;;;;;;;0.17;0.17;;;12.40;99.90;;;;;;5053924;28;20041;-77
2023/10/12 00:04:59;;;;;;;7.47;0.90;;;12.50;99.90;;;;;;5053588;28;20402;-77
2023/10/12 00:07:33;;;;;;;0.00;0.00;;;12.50;99.90;;;;;;5053242;28;20495;-78
2023/10/12 00:10:20;;;;;;;0.00;0.00;;;12.50;99.90;;;;;;5045879;28;20037;-77
2023/10/12 00:12:47;;;;;;;0.00;0.00;;;12.40;99.90;;;;;;5054886;28;20087;-78
2023/10/12 00:18:04;;;;;;;0.00;0.00;;;12.50;99.90;;;;;;5057351;28;20083;-80
2023/10/12 00:22:58;;;;;;;0.20;0.20;;;12.50;99.90;;;;;;5057105;28;20052;-80
2023/10/12 00:25:25;;;;;;;0.20;0.20;;;12.50;99.90;;;;;;5057097;28;20045;-79
2023/10/12 00:27:51;;;;;;;0.20;0.10;;;12.50;99.90;;;;;;5057454;28;20033;-80
2023/10/12 00:30:17;;;;;;;0.00;0.00;;;12.50;99.90;;;;;;5056916;28;20041;-80
2023/10/12 00:32:43;;;;;;;0.00;0.00;;;12.50;99.90;;;;;;5057040;28;20048;-80
2023/10/12 00:35:14;;;;;;;0.00;0.00;;;12.50;99.90;;;;;;5056754;28;20128;-80
2023/10/12 00:37:43;;;;;;;0.80;0.65;;;12.50;99.90;;;;;;5056003;28;20079;-80
2023/10/12 00:40:31;;;;;;;0.10;0.10;;;12.50;99.90;;;;;;5056655;28;20116;-80
2023/10/12 00:43:00;;;;;;;0.17;0.05;;;12.50;99.90;;;;;;5057350;28;20097;-80
2023/10/12 00:45:30;;;;;;;0.00;0.00;;;12.50;99.90;;;;;;5056130;28;20056;-79
2023/10/12 00:48:01;;;;;;;0.00;0.00;;;12.50;99.90;;;;;;5055580;28;20095;-80
2023/10/12 00:50:28;;;;;;;0.63;0.13;;;13.10;99.90;;;;;;5057306;28;20071;-79
2023/10/12 00:52:58;;;;;;;0.40;0.25;;;12.50;99.90;;;;;;5059345;28;20048;-80
2023/10/12 00:55:37;;;;;;;0.00;0.00;;;12.60;99.90;;;;;;5060129;28;20080;-80
2023/10/12 00:58:10;;;;;;;0.17;0.17;;;12.60;99.90;;;;;;5060615;28;20052;-79
2023/10/12 01:00:51;;;;;;;0.08;0.00;;;12.60;99.90;;;;;;5060404;28;20098;-79
2023/10/12 01:08:34;;;;;;;0.00;0.00;;;12.50;99.90;;;;;;5059846;28;20315;-80
2023/10/12 01:11:05;;;;;;;0.17;0.10;;;12.50;99.90;;;;;;5059494;28;20490;-80
2023/10/12 01:13:35;;;;;;;0.10;0.10;;;12.50;99.90;;;;;;5059282;28;20044;-79
2023/10/12 01:16:15;;;;;;;0.00;0.00;;;12.50;99.90;;;;;;5059749;28;20041;-79
2023/10/12 01:18:44;;;;;;;0.00;0.00;;;12.50;99.90;;;;;;5060469;28;20120;-79
2023/10/12 01:21:11;;;;;;;0.70;0.60;;;12.60;99.90;;;;;;5059775;28;20079;-79
2023/10/12 01:23:41;;;;;;;0.00;0.00;;;12.60;99.90;;;;;;5060227;28;20498;-80
2023/10/12 01:26:10;;;;;;;0.00;0.00;;;12.60;99.90;;;;;;5059693;28;20041;-79
2023/10/12 01:28:35;;;;;;;0.00;0.00;;;12.60;99.90;;;;;;5056706;28;20052;-76
2023/10/12 01:31:03;;;;;;;0.00;0.00;;;12.60;99.90;;;;;;5059226;28;20049;-79
2023/10/12 01:33:30;;;;;;;0.00;0.00;;;12.50;99.90;;;;;;5059890;28;20405;-79
2023/10/12 01:35:56;;;;;;;0.00;0.00;;;12.80;99.90;;;;;;5059989;28;20101;-79
2023/10/12 01:38:22;;;;;;;0.17;0.00;;;12.50;99.90;;;;;;5059178;28;20069;-80
2023/10/12 01:40:55;;;;;;;0.00;0.00;;;12.50;99.90;;;;;;5059563;28;20049;-79
2023/10/12 01:43:20;;;;;;;0.55;0.47;;;12.40;99.90;;;;;;5056796;28;20089;-79
2023/10/12 01:45:59;;;;;;;0.63;0.30;;;12.40;99.90;;;;;;5058815;28;20083;-79
2023/10/12 01:48:33;;;;;;;0.03;0.03;;;12.40;99.90;;;;;;5059162;28;20076;-79
2023/10/12 01:51:03;;;;;;;0.20;0.10;;;12.40;99.90;;;;;;5058792;28;20112;-79
2023/10/12 01:53:32;;;;;;;0.15;0.08;;;12.40;99.90;;;;;;5058367;28;20052;-79
2023/10/12 01:55:59;;;;;;;0.30;0.30;;;12.40;99.90;;;;;;5057526;28;20049;-79
2023/10/12 01:58:27;;;;;;;0.00;0.00;;;12.40;99.90;;;;;;5058249;28;20456;-79
2023/10/12 02:01:07;;;;;;;0.10;0.10;;;12.40;99.90;;;;;;5057872;28;20083;-79
2023/10/12 02:03:37;;;;;;;0.00;0.00;;;12.40;99.90;;;;;;5056703;28;20402;-79
2023/10/12 02:06:05;;;;;;;0.00;0.00;;;12.40;99.90;;;;;;5058248;28;20037;-79
2023/10/12 02:08:45;;;;;;;1.15;0.52;;;12.40;99.90;;;;;;5056583;28;20556;-79
2023/10/12 02:13:47;;;;;;;0.43;0.43;;;12.30;99.90;;;;;;5057426;28;20491;-79
2023/10/12 02:16:13;;;;;;;0.20;0.15;;;12.40;99.90;;;;;;5059010;28;20087;-79
2023/10/12 02:18:39;;;;;;;0.00;0.00;;;12.20;99.90;;;;;;5057532;28;20087;-79
2023/10/12 02:23:36;;;;;;;0.65;0.65;;;12.20;99.90;;;;;;5057883;28;20042;-80
2023/10/12 02:28:53;;;;;;;0.00;0.00;;;13.30;99.90;;;;;;5058290;28;20045;-79
2023/10/12 02:31:24;;;;;;;1.10;0.93;;;12.30;99.90;;;;;;5058429;28;20045;-80
2023/10/12 02:33:50;;;;;;;0.10;0.10;;;12.20;99.90;;;;;;5057730;28;20517;-79
2023/10/12 02:36:18;;;;;;;0.10;0.10;;;12.10;99.90;;;;;;5058231;28;20041;-79
2023/10/12 02:38:44;;;;;;;0.00;0.00;;;12.10;99.90;;;;;;5058207;28;20045;-79
2023/10/12 02:41:13;;;;;;;0.00;0.00;;;12.00;99.90;;;;;;5055395;28;20044;-77
2023/10/12 02:43:41;;;;;;;0.10;0.10;;;12.00;99.90;;;;;;5054850;28;20108;-77
2023/10/12 02:46:10;;;;;;;0.00;0.00;;;12.00;99.90;;;;;;5054322;28;20041;-77
2023/10/12 02:48:37;;;;;;;0.10;0.10;;;11.90;99.90;;;;;;5047721;28;20167;-78
2023/10/12 02:51:14;;;;;;;0.70;0.38;;;11.90;99.90;;;;;;5059030;28;20045;-79
2023/10/12 02:53:40;;;;;;;1.13;0.85;;;11.90;99.90;;;;;;5049951;28;20040;-79
2023/10/12 02:56:05;;;;;;;0.00;0.00;;;11.90;99.90;;;;;;5057329;28;20051;-79
2023/10/12 02:58:32;;;;;;;0.65;0.10;;;11.80;99.90;;;;;;5055094;28;20414;-77
2023/10/12 03:01:14;;;;;;;0.00;0.00;;;11.80;99.90;;;;;;5054761;28;20049;-80
2023/10/12 03:03:48;;;;;;;0.00;0.00;;;11.80;99.90;;;;;;5058237;28;20461;-79
2023/10/12 03:06:15;;;;;;;0.70;0.47;;;11.80;99.90;;;;;;5058458;28;20127;-80
2023/10/12 03:11:26;;;;;;;0.20;0.10;;;11.70;99.90;;;;;;5058222;28;20045;-80
2023/10/12 03:14:00;;;;;;;0.00;0.00;;;11.70;99.90;;;;;;5058522;28;20433;-79
2023/10/12 03:16:33;;;;;;;0.00;0.00;;;11.60;99.90;;;;;;5057841;28;20095;-80
2023/10/12 03:19:17;;;;;;;0.20;0.15;;;11.60;99.90;;;;;;5057595;28;20060;-79
2023/10/12 03:21:46;;;;;;;0.00;0.00;;;11.60;99.90;;;;;;5058121;28;20037;-79
2023/10/12 03:24:13;;;;;;;0.15;0.10;;;11.60;99.90;;;;;;5058071;28;20117;-80
2023/10/12 03:26:39;;;;;;;0.00;0.00;;;11.60;99.90;;;;;;5057445;28;20044;-80
2023/10/12 03:37:03;;;;;;;0.65;0.43;;;12.90;99.90;;;;;;5054584;28;20048;-79
2023/10/12 03:39:31;;;;;;;0.43;0.20;;;11.50;99.90;;;;;;5057460;28;20045;-79
2023/10/12 03:42:41;;;;;;;0.00;0.00;;;11.50;99.90;;;;;;5055974;28;20402;-79
2023/10/12 03:45:08;;;;;;;0.08;0.08;;;11.40;99.90;;;;;;5054401;28;20048;-79
2023/10/12 03:47:55;;;;;;;;;;;11.40;99.90;;;;;;5041527;28;20124;-79
2023/10/12 03:50:20;;;;;;;0.00;0.00;;;11.60;99.90;;;;;;5056581;28;19921;-79
2023/10/12 03:52:52;;;;;;;0.08;0.08;;;11.40;99.90;;;;;;5054964;28;20051;-79
2023/10/12 03:55:28;;;;;;;0.00;0.00;;;11.40;99.90;;;;;;5054771;28;20055;-79
2023/10/12 03:58:05;;;;;;;1.55;0.52;;;11.40;99.90;;;;;;5055679;28;20055;-79
2023/10/12 04:00:47;;;;;;;0.70;0.45;;;11.30;99.90;;;;;;5052621;28;20073;-79
2023/10/12 04:03:18;;;;;;;0.00;0.00;;;11.30;99.90;;;;;;5055637;28;20065;-79
2023/10/12 04:05:51;;;;;;;0.00;0.00;;;11.30;99.90;;;;;;5054751;28;20115;-79
2023/10/12 04:19:02;;;;;;;0.00;0.00;;;11.30;99.90;;;;;;5053141;28;20059;-77
2023/10/12 04:21:33;;;;;;;0.00;0.00;;;11.30;99.90;;;;;;5052977;28;20049;-77
2023/10/12 04:27:00;;;;;;;0.00;0.00;;;11.40;99.90;;;;;;5052362;28;20414;-76
2023/10/12 04:29:30;;;;;;;0.00;0.00;;;11.30;99.90;;;;;;5047256;28;20036;-76
2023/10/12 04:31:57;;;;;;;16.48;1.80;;;11.30;99.90;;;;;;5052832;28;20607;-77
2023/10/12 04:34:26;;;;;;;0.40;0.40;;;11.30;99.90;;;;;;5052704;28;20044;-77
2023/10/12 04:37:11;;;;;;;0.15;0.15;;;11.30;99.90;;;;;;5055426;28;20463;-77
2023/10/12 04:39:37;;;;;;;0.20;0.20;;;11.20;99.90;;;;;;5052797;28;20072;-77
2023/10/12 04:47:10;;;;;;;0.00;0.00;;;11.20;99.90;;;;;;5051636;28;20525;-76
2023/10/12 04:54:49;;;;;;;0.00;0.00;;;11.30;99.90;;;;;;5052850;28;20048;-77
2023/10/12 04:57:16;;;;;;;0.00;0.00;;;11.20;99.90;;;;;;5052806;28;20053;-77
2023/10/12 05:05:14;;;;;;;0.52;0.52;;;11.30;99.90;;;;;;5053017;28;20041;-77
2023/10/12 05:09:52;;;;;;;0.38;0.32;;;11.40;99.90;;;;;;5052591;28;20574;-76
2023/10/12 05:12:23;;;;;;;0.85;0.30;;;11.40;99.90;;;;;;5052465;28;20072;-76
2023/10/12 05:14:55;;;;;;;0.10;0.03;;;11.50;99.90;;;;;;5052496;28;20041;-77
2023/10/12 05:17:24;;;;;;;0.08;0.08;;;11.40;99.90;;;;;;5052392;28;20040;-77
2023/10/12 05:19:53;;;;;;;0.45;0.20;;;11.40;99.90;;;;;;5052896;28;20044;-76
2023/10/12 05:22:19;;;;;;;0.15;0.10;;;11.40;99.90;;;;;;5051133;28;20447;-77
2023/10/12 05:24:46;;;;;;;1.50;0.68;;;11.40;99.90;;;;;;5052895;28;20102;-77
2023/10/12 05:27:28;;;;;;;0.28;0.22;;;11.30;99.90;;;;;;5052873;28;20049;-78
2023/10/12 05:30:05;;;;;;;0.00;0.00;;;11.30;99.90;;;;;;5051243;28;20536;-77
2023/10/12 05:32:42;;;;;;;0.00;0.00;;;11.20;99.90;;;;;;5052932;28;20398;-78
2023/10/12 05:35:15;;;;;;;0.00;0.00;;;12.40;99.90;;;;;;5046105;28;20115;-78
2023/10/12 05:37:49;;;;;;;0.05;0.05;;;11.10;99.90;;;;;;5053764;28;20447;-78
2023/10/12 05:40:16;;;;;;;0.00;0.00;;;11.00;99.90;;;;;;5056307;28;20041;-78
2023/10/12 05:42:46;;;;;;;0.00;0.00;;;11.00;99.90;;;;;;5056221;28;20071;-78
2023/10/12 05:47:43;;;;;;;0.00;0.00;;;10.90;99.90;;;;;;5056611;28;20057;-78
2023/10/12 05:50:13;;;;;;;0.22;0.22;;;10.80;99.90;;;;;;5055252;28;20049;-78
2023/10/12 05:52:40;;;;;;;0.00;0.00;;;10.70;99.90;;;;;;5055133;28;20056;-78
2023/10/12 05:55:19;;;;;;;0.20;0.20;;;10.60;99.90;;;;;;5054762;28;20057;-78
2023/10/12 05:57:44;;;;;;;0.20;0.20;;;10.50;99.90;;;;;;5053363;28;20076;-78
2023/10/12 06:00:11;;;;;;;0.80;0.20;;;10.40;99.90;;;;;;5054982;28;20084;-78
2023/10/12 06:02:37;;;;;;;0.00;0.00;;;10.30;99.90;;;;;;5055155;28;20049;-78
2023/10/12 06:05:05;;;;;;;0.98;0.88;;;10.30;99.90;;;;;;5055068;28;20174;-78
2023/10/12 06:07:31;;;;;;;0.35;0.35;;;10.10;99.90;;;;;;5052105;28;20464;-78
2023/10/12 06:09:56;;;;;;;0.13;0.03;;;10.00;99.90;;;;;;5055080;28;20040;-78
2023/10/12 06:12:24;;;;;;;0.00;0.00;;;10.00;99.90;;;;;;5054562;28;20124;-78
2023/10/12 06:14:53;;;;;;;0.10;0.10;;;9.90;99.90;;;;;;5054917;28;20521;-78
2023/10/12 06:17:30;;;;;;;0.05;0.03;;;9.70;99.90;;;;;;5054540;28;20048;-78
2023/10/12 06:20:10;;;;;;;0.00;0.00;;;9.60;99.90;;;;;;5048111;28;20163;-78
2023/10/12 06:22:36;;;;;;;0.00;0.00;;;9.60;99.90;;;;;;5053373;28;20107;-78
2023/10/12 06:25:07;;;;;;;0.30;0.28;;;9.50;99.90;;;;;;5054663;28;20045;-78
2023/10/12 06:27:33;;;;;;;0.00;0.00;;;9.60;99.90;;;;;;5050492;28;20533;-78
2023/10/12 06:30:06;;;;;;;2.33;1.10;;;9.60;99.90;;;;;;5054645;28;20174;-78
2023/10/12 06:32:31;;;;;;;0.00;0.00;;;9.70;99.90;;;;;;5054154;28;20551;-78
2023/10/12 06:45:51;;;;;;;0.28;0.25;;;10.00;99.90;;;;;;5050883;28;20053;-78
2023/10/12 06:51:40;;;;;;;0.90;0.65;;;10.10;99.90;;;;;;5026870;28;20053;-78
2023/10/12 06:54:32;;;;;;;0.30;0.25;;;10.10;99.90;;;;;;4978041;28;20448;-78
2023/10/12 07:02:24;;;;;;;0.08;0.00;;;10.20;99.90;;;;;;5050834;28;20406;-78
2023/10/12 07:04:54;;;;;;;2.83;0.20;;;10.20;99.90;;;;;;5049958;28;20049;-77
2023/10/12 07:07:26;;;;;;;0.20;0.10;;;10.30;99.90;;;;;;5050389;28;20051;-78
2023/10/12 07:12:37;;;;;;;0.00;0.00;;;10.30;99.90;;;;;;5050695;28;20049;-78
2023/10/12 07:15:10;;;;;;;0.00;0.00;;;10.40;99.90;;;;;;5050737;28;20045;-78
2023/10/12 07:17:36;;;;;;;0.00;0.00;;;10.50;99.90;;;;;;5050737;28;20057;-77
2023/10/12 07:20:03;;;;;;;0.08;0.08;;;10.60;99.90;;;;;;5049165;28;20533;-78
2023/10/12 07:22:34;;;;;;;0.00;0.00;;;10.70;99.90;;;;;;5049956;28;20045;-78
2023/10/12 07:25:00;;;;;;;0.15;0.15;;;10.70;99.90;;;;;;5050454;28;20036;-78
2023/10/12 07:27:26;;;;;;;0.00;0.00;;;10.70;99.90;;;;;;5049933;28;20095;-78
2023/10/12 07:32:57;;;;;;;0.00;0.00;;;10.90;99.90;;;;;;5048401;28;20064;-77
2023/10/12 07:35:32;;;;;;;0.00;0.00;;;11.10;99.90;;;;;;5050334;28;20041;-77
2023/10/12 07:38:13;;;;;;;0.45;0.35;;;11.20;99.90;;;;;;5049804;28;20048;-78
2023/10/12 07:40:56;;;;;;;0.00;0.00;;;11.30;99.90;;;;;;5050246;28;20067;-77
2023/10/12 07:43:25;;;;;;;2.28;1.17;;;11.40;99.90;;;;;;5046905;28;20056;-77
2023/10/12 07:45:51;;;;;;;0.15;0.15;;;11.50;99.90;;;;;;5049830;28;20124;-77
2023/10/12 07:51:15;;;;;;;0.80;0.63;;;11.70;99.90;;;;;;5050129;28;20123;-77
2023/10/12 07:53:49;;;;;;;0.30;0.20;;;11.80;99.90;;;;;;5050109;28;20455;-77
2023/10/12 07:56:18;;;;;;;0.15;0.10;;;11.90;99.90;;;;;;5049890;28;20072;-77
2023/10/12 07:58:50;;;;;;;0.43;0.30;;;12.10;99.90;;;;;;5043432;28;20045;-77
2023/10/12 08:03:58;;;;;;;0.00;0.00;;;12.30;99.90;;;;;;5045023;28;20490;-77
2023/10/12 08:09:21;;;;;;;0.03;0.03;;;12.30;99.90;;;;;;5049718;28;20055;-77
2023/10/12 08:11:46;;;;;;;0.00;0.00;;;12.30;99.90;;;;;;5041495;28;20047;-77
2023/10/12 08:19:39;;;;;;;0.00;0.00;;;12.40;99.90;;;;;;5049481;28;20191;-78
2023/10/12 08:22:14;;;;;;;0.70;0.38;;;12.50;99.90;;;;;;5049527;28;20049;-77
2023/10/12 08:24:40;;;;;;;0.00;0.00;;;12.50;99.90;;;;;;5049675;28;20509;-77
2023/10/12 08:27:06;;;;;;;0.00;0.00;;;12.60;99.90;;;;;;5049480;28;20103;-77
2023/10/12 08:39:51;;;;;;;0.00;0.00;;;13.10;99.90;;;;;;5049438;28;20111;-77
2023/10/12 08:45:15;;;;;;;0.00;0.00;;;13.40;99.90;;;;;;5048704;28;20151;-77
2023/10/12 08:47:48;;;;;;;0.10;0.10;;;13.50;99.90;;;;;;5047319;28;20124;-77
2023/10/12 08:52:50;;;;;;;0.00;0.00;;;13.50;99.90;;;;;;5047943;28;20051;-77
2023/10/12 08:55:24;;;;;;;0.10;0.10;;;13.60;99.90;;;;;;5048107;28;20156;-77
2023/10/12 08:58:11;;;;;;;0.00;0.00;;;13.80;99.90;;;;;;5046940;28;20436;-77
2023/10/12 09:00:44;;;;;;;0.90;0.40;;;14.00;99.90;;;;;;5041257;28;20053;-77
2023/10/12 09:05:51;;;;;;;0.10;0.10;;;14.30;99.90;;;;;;5048270;28;20468;-77
2023/10/12 09:11:02;;;;;;;0.90;0.65;;;14.50;99.90;;;;;;5047705;28;20041;-77
2023/10/12 09:13:30;;;;;;;0.10;0.10;;;14.50;99.90;;;;;;5050180;28;20088;-77
2023/10/12 09:16:02;;;;;;;0.30;0.22;;;14.50;99.90;;;;;;5052059;28;20037;-77
2023/10/12 09:18:33;;;;;;;0.43;0.30;;;14.60;99.90;;;;;;5051663;28;20577;-77
2023/10/12 09:23:38;;;;;;;0.00;0.00;;;14.60;99.90;;;;;;5051604;28;20056;-77
2023/10/12 09:28:53;;;;;;;0.00;0.00;;;14.30;99.90;;;;;;5051571;28;20056;-77
2023/10/12 09:36:26;;;;;;;0.00;0.00;;;14.30;99.90;;;;;;5050589;28;20041;-77
2023/10/12 09:38:55;;;;;;;1.83;0.73;;;14.30;99.90;;;;;;5051042;28;20123;-77
2023/10/12 09:41:33;;;;;;;0.73;0.40;;;14.50;99.90;;;;;;5051026;28;20037;-78
2023/10/12 09:44:04;;;;;;;1.60;0.50;;;14.60;99.90;;;;;;5050922;28;20045;-77
2023/10/12 09:46:33;;;;;;;0.00;0.00;;;14.80;99.90;;;;;;5051285;28;20344;-77
2023/10/12 09:49:08;;;;;;;0.00;0.00;;;14.80;99.90;;;;;;5049756;28;20060;-77
2023/10/12 09:51:45;;;;;;;0.00;0.00;;;14.90;98.60;;;;;;5051355;28;20099;-78
2023/10/12 09:54:27;;;;;;;0.00;0.00;;;15.00;1.00;;;;;;5049267;28;20287;-77
2023/10/12 09:57:04;;;;;;;0.00;0.00;;;15.10;99.90;;;;;;5050328;28;20087;-77
2023/10/12 09:59:31;;;;;;;0.15;0.15;;;15.10;95.40;;;;;;5048084;28;20506;-77
2023/10/12 10:02:10;;;;;;;1.23;1.10;;;15.20;90.80;;;;;;5050201;28;20037;-77
2023/10/12 10:04:41;;;;;;;0.00;0.00;;;15.30;21.10;;;;;;5043539;28;20084;-77
2023/10/12 10:09:38;;;;;;;0.15;0.13;;;15.30;99.90;;;;;;5050626;28;20053;-78
2023/10/12 10:12:08;;;;;;;0.40;0.10;;;15.20;28.10;;;;;;5049662;28;20069;-77
2023/10/12 10:14:36;;;;;;;1.25;0.55;;;15.00;99.90;;;;;;5052095;28;20044;-78
2023/10/12 10:17:02;;;;;;;1.35;0.63;;;15.00;1.00;;;;;;5052115;28;20037;-78
2023/10/12 10:19:29;;;;;;;0.00;0.00;;;15.20;1.00;;;;;;5051476;28;20410;-78
2023/10/12 10:22:14;;;;;;;3.40;0.95;;;15.40;1.00;;;;;;5052969;28;20242;-78
2023/10/12 10:24:46;;;;;;;0.17;0.15;;;15.70;99.90;;;;;;5054062;28;20041;-78
2023/10/12 10:27:15;;;;;;;0.10;0.10;;;15.80;99.90;;;;;;5055830;28;20053;-78
2023/10/12 10:29:54;;;;;;;0.05;0.03;;;16.20;99.90;;;;;;5056439;28;20548;-78
2023/10/12 10:32:29;;;;;;;0.00;0.00;;;16.50;2.40;;;;;;5057511;28;20045;-79
2023/10/12 10:35:04;;;;;;;0.00;0.00;;;16.60;99.90;;;;;;5057730;28;20067;-79
2023/10/12 10:37:58;;;;;;;0.00;0.00;;;16.80;99.90;;;;;;5058692;28;20057;-79
2023/10/12 10:40:48;;;;;;;0.00;0.00;;;17.40;99.90;;;;;;5054381;28;20128;-79
2023/10/12 10:43:17;;;;;;;0.40;0.32;;;17.50;99.90;;;;;;5053078;28;20033;-79
2023/10/12 10:45:56;;;;;;;0.08;0.08;;;18.20;1.00;;;;;;5059395;28;20508;-79
2023/10/12 10:48:23;;;;;;;0.00;0.00;;;18.20;99.90;;;;;;5051981;28;20041;-79
2023/10/12 10:50:50;;;;;;;0.68;0.32;;;18.40;99.90;;;;;;5058023;28;20064;-79
2023/10/12 10:53:17;;;;;;;0.00;0.00;;;18.70;1.00;;;;;;5051403;28;20047;-80
2023/10/12 10:55:47;;;;;;;0.00;0.00;;;19.10;99.90;;;;;;5058512;28;20049;-80
2023/10/12 10:58:14;;;;;;;1.55;1.17;;;19.20;99.90;;;;;;5058255;28;20083;-80
2023/10/12 11:00:45;;;;;;;0.00;0.00;;;19.40;54.10;;;;;;5057949;28;20045;-80
2023/10/12 11:03:17;;;;;;;1.55;0.52;;;19.50;13.60;;;;;;5057415;28;20037;-80
2023/10/12 11:05:46;;;;;;;3.25;2.35;;;19.50;1.00;;;;;;5058069;28;20053;-80
2023/10/12 11:08:26;;;;;;;0.00;0.00;;;19.30;99.90;;;;;;5057594;28;20033;-80
2023/10/12 11:13:34;;;;;;;0.00;0.00;;;18.70;99.90;;;;;;5058979;28;20087;-79
2023/10/12 11:16:20;;;;;;;0.00;0.00;;;18.80;99.90;;;;;;5056698;28;20041;-79
2023/10/12 11:18:47;;;;;;;0.00;0.00;;;18.40;21.50;;;;;;5041470;28;20045;-79
2023/10/12 11:21:15;;;;;;;0.00;0.00;;;18.50;99.90;;;;;;5057168;28;20036;-79
2023/10/12 11:23:44;;;;;;;0.60;0.52;;;18.50;99.90;;;;;;5056932;28;20037;-79
2023/10/12 11:26:17;;;;;;;0.38;0.38;;;18.50;99.90;;;;;;5055875;28;20422;-79
2023/10/12 11:28:46;;;;;;;0.00;0.00;;;18.00;1.00;;;;;;5057344;28;20049;-79
2023/10/12 11:31:20;;;;;;;0.30;0.17;;;17.90;1.00;;;;;;5056395;28;20052;-79
2023/10/12 11:33:49;;;;;;;0.10;0.10;;;18.00;99.90;;;;;;5057786;28;20045;-80
2023/10/12 11:36:24;;;;;;;0.00;0.00;;;17.70;12.60;;;;;;5055245;28;20490;-79
2023/10/12 11:39:18;;;;;;;0.10;0.10;;;17.90;99.90;;;;;;5054800;28;20609;-79
2023/10/12 11:42:06;;;;;;;0.35;0.32;;;17.50;1.00;;;;;;5054471;28;20064;-79
2023/10/12 11:44:36;;;;;;;0.57;0.52;;;17.50;85.60;;;;;;5058104;28;20064;-79
2023/10/12 11:47:07;;;;;;;7.03;1.00;;;18.20;45.80;;;;;;5058035;28;20041;-79
2023/10/12 11:49:49;;;;;;;0.47;0.35;;;17.50;34.00;;;;;;5057845;28;20084;-79
2023/10/12 11:52:22;;;;;;;1.20;0.75;;;17.30;55.80;;;;;;5048412;28;20140;-79
2023/10/12 11:54:48;;;;;;;0.00;0.00;;;17.10;96.20;;;;;;5056421;28;20545;-79
2023/10/12 11:57:14;;;;;;;0.15;0.15;;;17.10;98.10;;;;;;5056837;28;20053;-79
2023/10/12 11:59:39;;;;;;;0.13;0.13;;;17.10;39.30;;;;;;5054906;28;20094;-79
2023/10/12 12:02:09;;;;;;;2.30;0.55;;;17.00;53.50;;;;;;5054691;28;20091;-80
2023/10/12 12:04:41;;;;;;;0.10;0.10;;;17.10;50.60;;;;;;5055281;28;20045;-79
2023/10/12 12:07:13;;;;;;;0.00;0.00;;;17.10;7.00;;;;;;5055267;28;20049;-79
2023/10/12 12:09:40;;;;;;;0.00;0.00;;;17.10;1.00;;;;;;5054815;28;20401;-79
2023/10/12 12:12:12;;;;;;;0.00;0.00;;;16.90;1.00;;;;;;5054490;28;20041;-79
2023/10/12 12:14:38;;;;;;;0.00;0.00;;;17.10;1.00;;;;;;5057082;28;20095;-79
2023/10/12 12:17:04;;;;;;;0.00;0.00;;;17.60;1.00;;;;;;5058661;28;20055;-79
2023/10/12 12:19:33;;;;;;;0.38;0.32;;;17.30;1.00;;;;;;5058776;28;20044;-79
2023/10/12 12:21:58;;;;;;;0.00;0.00;;;17.40;1.00;;;;;;5055159;28;20071;-79
2023/10/12 12:24:24;;;;;;;0.00;0.00;;;17.50;1.00;;;;;;5056977;28;20068;-79
2023/10/12 12:26:54;;;;;;;0.47;0.25;;;17.60;1.00;;;;;;5055949;28;20068;-79
2023/10/12 12:29:27;;;;;;;4.90;1.95;;;17.90;1.00;;;;;;5056029;28;20402;-79
2023/10/12 12:31:54;;;;;;;0.43;0.38;;;17.50;1.00;;;;;;5056286;28;20139;-79
2023/10/12 12:34:38;;;;;;;0.13;0.13;;;17.30;1.00;;;;;;5056289;28;20098;-79
2023/10/12 12:37:08;;;;;;;0.22;0.22;;;16.90;1.00;;;;;;5056220;28;20429;-79
2023/10/12 12:39:34;;;;;;;8.48;0.90;;;16.70;1.00;;;;;;5055787;28;20041;-79
2023/10/12 12:42:09;;;;;;;0.10;0.10;;;16.70;1.00;;;;;;5056136;28;20475;-79
2023/10/12 12:44:34;;;;;;;11.93;0.63;;;16.70;1.00;;;;;;5055841;28;20052;-79
2023/10/12 12:47:01;;;;;;;3.83;0.28;;;16.70;1.00;;;;;;5056878;28;20112;-79
2023/10/12 12:49:30;;;;;;;0.50;0.50;;;16.60;1.00;;;;;;5060902;28;20497;-79
2023/10/12 12:51:57;;;;;;;2.10;1.00;;;16.50;1.00;;;;;;5060415;28;20072;-79
2023/10/12 12:54:24;;;;;;;0.60;0.20;;;16.10;1.00;;;;;;5060617;28;20116;-79
2023/10/12 12:56:53;;;;;;;0.20;0.15;;;16.00;1.00;;;;;;5060320;28;20060;-79
2023/10/12 12:59:21;;;;;;;0.80;0.47;;;16.10;1.00;;;;;;5060329;28;20090;-79
2023/10/12 13:01:46;;;;;;;3.83;0.90;;;16.20;1.00;;;;;;5059734;28;20044;-79
2023/10/12 13:04:14;;;;;;;0.00;0.00;;;16.00;1.00;;;;;;5060041;28;20116;-79
2023/10/12 13:06:40;;;;;;;0.00;0.00;;;16.00;1.00;;;;;;5058948;28;20053;-79
2023/10/12 13:09:05;;;;;;;3.35;0.40;;;16.10;1.00;;;;;;5059572;28;20052;-78
2023/10/12 13:11:33;;;;;;;3.70;1.88;;;16.10;1.00;;;;;;5060349;28;20044;-78
2023/10/12 13:13:58;;;;;;;0.55;0.47;;;16.30;1.00;;;;;;5058149;28;20413;-78
2023/10/12 13:16:24;;;;;;;0.25;0.20;;;16.20;1.00;;;;;;5059314;28;20041;-79
2023/10/12 13:18:49;;;;;;;1.20;1.10;;;16.20;1.00;;;;;;5059278;28;20037;-79
2023/10/12 13:21:16;;;;;;;0.20;0.20;;;16.30;1.00;;;;;;5058915;28;20493;-79
2023/10/12 13:23:45;;;;;;;6.70;1.08;;;16.00;1.00;;;;;;5057732;28;20101;-79
2023/10/12 13:26:12;;;;;;;0.80;0.80;;;16.10;1.00;;;;;;5058365;28;20079;-79
2023/10/12 13:28:40;;;;;;;0.00;0.00;;;16.10;1.00;;;;;;5057949;28;20041;-79
2023/10/12 13:31:06;;;;;;;0.10;0.08;;;16.10;1.00;;;;;;5056863;28;20052;-79
2023/10/12 13:33:34;;;;;;;0.00;0.00;;;16.10;1.00;;;;;;5058231;28;20119;-78
2023/10/12 13:36:01;;;;;;;0.20;0.13;;;15.90;1.00;;;;;;5056291;28;20044;-78
2023/10/12 13:38:31;;;;;;;1.25;0.47;;;15.60;99.90;;;;;;5056669;28;20473;-78
2023/10/12 13:40:57;;;;;;;0.00;0.00;;;15.40;99.90;;;;;;5056432;28;20052;-78
2023/10/12 13:43:26;;;;;;;1.88;1.00;;;15.60;1.00;;;;;;5056677;28;20115;-78
2023/10/12 13:45:54;;;;;;;0.00;0.00;;;15.30;1.00;;;;;;5056581;28;20474;-78
2023/10/12 13:48:25;;;;;;;0.00;0.00;;;15.30;1.00;;;;;;5057755;28;20037;-78
2023/10/12 13:51:08;;;;;;;0.10;0.10;;;15.80;1.00;;;;;;5057551;28;20084;-78
2023/10/12 13:53:36;;;;;;;0.00;0.00;;;15.30;1.00;;;;;;5056630;28;20048;-78
2023/10/12 13:56:09;;;;;;;0.00;0.00;;;15.20;1.00;;;;;;5056651;28;20053;-78
2023/10/12 13:58:36;;;;;;;0.10;0.10;;;15.10;99.90;;;;;;5056050;28;20075;-78
2023/10/12 14:01:03;;;;;;;0.00;0.00;;;15.10;1.00;;;;;;5055494;28;20076;-78
2023/10/12 14:03:29;;;;;;;0.00;0.00;;;15.10;1.00;;;;;;5055383;28;20045;-78
2023/10/12 14:05:56;;;;;;;0.00;0.00;;;15.00;1.00;;;;;;5052263;28;20143;-78
2023/10/12 14:08:23;;;;;;;0.15;0.15;;;15.00;1.00;;;;;;5050825;28;20064;-77
2023/10/12 14:10:51;;;;;;;0.00;0.00;;;15.00;1.00;;;;;;5056044;28;20047;-78
2023/10/12 14:13:17;;;;;;;0.00;0.00;;;14.90;1.00;;;;;;5056306;28;20086;-78
2023/10/12 14:15:46;;;;;;;0.45;0.20;;;14.90;1.00;;;;;;5049402;28;20037;-78
2023/10/12 14:18:16;;;;;;;0.75;0.32;;;14.80;1.00;;;;;;5056344;28;20041;-78
2023/10/12 14:20:45;;;;;;;0.00;0.00;;;14.70;1.00;;;;;;5055537;28;20479;-78
2023/10/12 14:23:12;;;;;;;0.00;0.00;;;14.70;1.00;;;;;;5055212;28;20032;-78
2023/10/12 14:25:50;;;;;;;0.10;0.10;;;14.70;1.00;;;;;;5055205;28;20159;-78
2023/10/12 14:28:17;;;;;;;0.30;0.20;;;14.80;1.00;;;;;;5054976;28;20098;-78
2023/10/12 14:30:46;;;;;;;0.90;0.35;;;15.00;1.50;;;;;;5055539;28;20041;-78
2023/10/12 14:33:15;;;;;;;8.75;1.30;;;14.30;44.00;;;;;;5054994;28;20048;-78
2023/10/12 14:35:41;;;;;;;0.47;0.47;;;14.00;99.90;;;;;;5054331;28;20507;-78
2023/10/12 14:38:12;;;;;;;0.30;0.25;;;13.80;99.90;;;;;;5053205;28;20037;-78
2023/10/12 14:40:40;;;;;;;0.45;0.22;;;13.50;1.00;;;;;;5053642;28;20130;-78
2023/10/12 14:43:10;;;;;;;0.00;0.00;;;13.40;99.90;;;;;;5049730;28;20052;-78
2023/10/12 14:45:38;;;;;;;0.35;0.35;;;13.20;14.80;;;;;;5053442;28;20092;-78
2023/10/12 14:48:09;;;;;;;3.92;1.83;;;13.00;60.30;;;;;;5052658;28;20116;-78
2023/10/12 14:50:45;;;;;;;0.30;0.30;;;13.00;99.90;;;;;;5053200;28;20053;-78
2023/10/12 14:53:15;;;;;;;0.00;0.00;;;13.00;99.90;;;;;;5053212;28;20053;-78
2023/10/12 14:55:43;;;;;;;0.17;0.15;;;13.00;99.90;;;;;;5055961;28;20056;-80
2023/10/12 14:58:09;;;;;;;0.00;0.00;;;13.10;99.90;;;;;;5055925;28;20045;-80
2023/10/12 15:00:35;;;;;;;3.40;1.55;;;13.10;36.90;;;;;;5056607;28;20041;-79
2023/10/12 15:03:01;;;;;;;0.00;0.00;;;13.30;99.90;;;;;;5056861;28;20502;-79
2023/10/12 15:05:33;;;;;;;3.47;0.52;;;13.40;99.90;;;;;;5056821;28;20052;-79
2023/10/12 15:07:59;;;;;;;0.30;0.22;;;13.40;10.00;;;;;;5056406;28;20043;-80
2023/10/12 15:10:25;;;;;;;0.00;0.00;;;13.30;99.90;;;;;;5057152;28;20124;-79
2023/10/12 15:12:51;;;;;;;0.30;0.30;;;13.30;99.90;;;;;;5056336;28;20036;-79
2023/10/12 15:15:25;;;;;;;0.45;0.28;;;13.20;1.00;;;;;;5056137;28;20414;-79
2023/10/12 15:17:54;;;;;;;0.55;0.55;;;13.20;1.00;;;;;;5057088;28;20076;-79
2023/10/12 15:20:23;;;;;;;0.00;0.00;;;13.30;69.60;;;;;;5055747;28;20045;-79
2023/10/12 15:22:49;;;;;;;0.30;0.30;;;13.90;99.90;;;;;;5055907;28;20037;-79
2023/10/12 15:25:19;;;;;;;0.10;0.10;;;13.30;99.90;;;;;;5054942;28;20033;-79
2023/10/12 15:27:50;;;;;;;0.00;0.00;;;13.30;1.00;;;;;;5055043;28;20501;-79